Time;durP1;ratioP1;P1;durP2;ratioP2;P2;SDS_P1;SDS_P2;PMS_P1;PMS_P2;Temp;Humidity;BMP_temperature;BMP_pressure;BME280_temperature;BME280_humidity;BME280_pressure;Samples;Min_cycle;Max_cycle;Signal;HPM_P1;HPM_P2
2023/05/29 00:02:10;;;;;;;21.63;6.78;;;15.80;99.90;;;16.01;69.14;102299.81;5081251;28;20064;-67
2023/05/29 00:04:38;;;;;;;26.85;7.30;;;15.70;99.90;;;15.99;69.25;102306.94;5084086;28;20051;-67
2023/05/29 00:07:07;;;;;;;27.58;7.10;;;15.70;99.90;;;15.96;69.67;102310.53;5075404;28;20393;-67
2023/05/29 00:09:35;;;;;;;26.88;7.75;;;15.70;99.90;;;15.79;69.99;102299.03;5082863;28;20075;-67
2023/05/29 00:12:05;;;;;;;21.42;7.20;;;15.60;99.90;;;15.87;70.05;102299.00;5081136;28;20049;-67
2023/05/29 00:14:34;;;;;;;22.08;6.55;;;15.50;99.90;;;15.91;70.10;102306.13;5083070;28;20077;-67
2023/05/29 00:17:02;;;;;;;19.23;6.95;;;15.60;99.90;;;15.90;70.23;102296.31;5081886;28;20047;-67
2023/05/29 00:19:32;;;;;;;22.55;6.68;;;15.50;99.90;;;15.93;69.94;102299.84;5082014;28;20044;-67
2023/05/29 00:22:01;;;;;;;24.50;7.38;;;15.60;99.90;;;15.84;70.07;102301.66;5083263;28;20485;-67
2023/05/29 00:24:29;;;;;;;21.17;6.20;;;15.50;99.90;;;15.79;69.93;102296.38;5081015;28;20076;-67
2023/05/29 00:26:57;;;;;;;18.52;6.50;;;15.50;99.90;;;15.68;70.62;102300.81;5083773;28;20075;-67
2023/05/29 00:29:26;;;;;;;19.05;6.40;;;15.40;99.90;;;15.71;70.57;102292.81;5078918;28;20188;-67
2023/05/29 00:31:56;;;;;;;26.48;6.95;;;15.40;99.90;;;15.71;70.58;102307.94;5051363;28;20110;-67
2023/05/29 00:34:25;;;;;;;24.48;6.75;;;15.40;99.90;;;15.78;70.61;102304.34;5083460;28;20173;-67
2023/05/29 00:36:55;;;;;;;24.30;7.05;;;15.40;99.90;;;15.74;70.75;102314.16;5081577;28;20037;-67
2023/05/29 00:39:24;;;;;;;23.17;6.78;;;15.40;99.90;;;15.78;70.35;102313.25;5082124;28;20420;-66
2023/05/29 00:41:52;;;;;;;19.63;6.60;;;15.40;99.90;;;15.78;70.46;102323.94;5098030;28;20045;-67
2023/05/29 00:44:21;;;;;;;24.90;7.43;;;15.40;99.90;;;15.71;70.43;102324.84;5081510;28;20093;-66
2023/05/29 00:46:53;;;;;;;21.13;7.15;;;15.40;99.90;;;15.08;70.30;102204.91;5099024;28;20089;-67
2023/05/29 00:49:23;;;;;;;21.08;7.32;;;15.40;99.90;;;15.74;70.12;102335.50;5076258;28;20486;-68
2023/05/29 00:51:55;;;;;;;23.17;6.50;;;15.40;99.90;;;15.74;70.34;102338.16;5083296;28;20113;-67
2023/05/29 00:54:28;;;;;;;19.67;6.13;;;15.40;99.90;;;15.76;70.10;102346.16;5064053;28;20074;-67
2023/05/29 00:56:58;;;;;;;25.67;7.10;;;15.40;99.90;;;15.71;70.29;102340.84;5081383;28;20054;-66
2023/05/29 00:59:28;;;;;;;20.83;6.63;;;15.40;99.90;;;15.20;70.21;102256.44;5083276;28;20048;-67
2023/05/29 01:01:57;;;;;;;21.17;6.53;;;15.40;99.90;;;15.63;70.37;102317.72;5080143;28;20052;-66
2023/05/29 01:04:27;;;;;;;28.63;7.13;;;15.40;99.90;;;15.69;70.12;102339.06;5077203;28;20040;-66
2023/05/29 01:06:57;;;;;;;23.02;7.10;;;15.40;99.90;;;15.57;70.38;102350.66;5085387;28;20051;-67
2023/05/29 01:09:25;;;;;;;22.77;7.00;;;15.30;99.90;;;15.65;70.32;102347.97;5084739;28;20051;-67
2023/05/29 01:12:07;;;;;;;19.60;6.65;;;15.30;99.90;;;15.66;70.33;102349.75;5085671;28;20286;-66
2023/05/29 01:14:57;;;;;;;22.45;6.25;;;15.30;99.90;;;15.50;70.59;102348.88;5087392;28;20051;-67
2023/05/29 01:17:34;;;;;;;25.35;6.93;;;15.20;99.90;;;15.48;70.71;102345.34;5101521;28;20044;-66
2023/05/29 01:20:30;;;;;;;21.85;6.63;;;15.10;99.90;;;15.55;70.69;102351.53;5080865;28;20052;-67
2023/05/29 01:23:40;;;;;;;24.60;6.70;;;15.20;99.90;;;15.47;70.71;102347.97;5081322;28;20062;-67
2023/05/29 01:26:25;;;;;;;28.63;7.22;;;15.20;99.90;;;15.47;70.77;102350.66;5077718;28;20447;-66
2023/05/29 01:29:01;;;;;;;22.38;6.47;;;15.10;99.90;;;15.44;70.51;102348.00;5065181;28;20110;-66
2023/05/29 01:31:31;;;;;;;22.02;7.25;;;15.10;99.90;;;15.43;70.38;102343.56;5082728;28;20044;-66
2023/05/29 01:34:01;;;;;;;18.05;5.75;;;15.10;99.90;;;15.24;70.27;102327.53;5102404;28;20056;-66
2023/05/29 01:36:30;;;;;;;19.45;6.35;;;15.10;99.90;;;15.35;70.36;102339.06;5079301;28;20055;-67
2023/05/29 01:38:59;;;;;;;24.75;6.55;;;15.00;99.90;;;15.33;70.47;102338.19;5086350;28;20536;-66
2023/05/29 01:41:28;;;;;;;18.98;5.75;;;15.00;99.90;;;15.31;69.99;102339.09;5084303;28;20443;-66
2023/05/29 01:44:01;;;;;;;23.70;6.72;;;15.00;99.90;;;15.28;70.01;102342.63;5101050;28;20056;-66
2023/05/29 01:46:29;;;;;;;26.58;6.85;;;14.90;99.90;;;15.21;69.73;102343.50;5085406;28;20045;-67
2023/05/29 01:48:58;;;;;;;22.02;7.43;;;14.90;99.90;;;15.24;69.87;102346.19;5082332;28;20048;-67
2023/05/29 01:51:26;;;;;;;18.05;6.22;;;14.90;99.90;;;15.21;69.94;102348.84;5086368;28;20392;-67
2023/05/29 01:53:55;;;;;;;23.67;6.72;;;14.80;99.90;;;15.22;69.73;102352.41;5098271;28;20052;-67
2023/05/29 01:56:23;;;;;;;18.17;6.15;;;14.90;99.90;;;15.16;69.42;102361.28;5078870;28;20110;-67
2023/05/29 01:58:52;;;;;;;17.05;6.18;;;14.80;99.90;;;15.16;69.15;102358.63;5101703;28;20048;-66
2023/05/29 02:01:22;;;;;;;20.67;5.80;;;14.80;99.90;;;15.11;69.31;102346.19;5065950;28;20048;-66
2023/05/29 02:03:51;;;;;;;15.68;5.70;;;14.90;99.90;;;15.20;69.33;102371.06;5084696;28;20060;-66
2023/05/29 02:06:21;;;;;;;21.17;6.63;;;14.90;99.90;;;15.23;69.19;102371.06;5100578;28;20084;-66
2023/05/29 02:08:49;;;;;;;20.10;6.45;;;14.90;99.90;;;15.22;68.98;102371.97;5083800;28;20040;-67
2023/05/29 02:11:18;;;;;;;20.55;6.65;;;14.90;99.90;;;15.19;68.86;102369.28;5085211;28;20054;-66
2023/05/29 02:13:46;;;;;;;20.40;6.00;;;14.90;99.90;;;15.13;69.09;102366.63;5082872;28;20059;-67
2023/05/29 02:16:14;;;;;;;18.95;6.10;;;14.80;99.90;;;15.10;69.11;102363.94;5084596;28;20505;-67
2023/05/29 02:18:45;;;;;;;18.73;6.20;;;14.80;99.90;;;15.12;68.79;102366.59;5094069;28;20413;-66
2023/05/29 02:21:14;;;;;;;19.08;6.22;;;14.80;99.90;;;15.04;69.20;102360.41;5101128;28;20113;-66
2023/05/29 02:23:42;;;;;;;16.17;5.80;;;14.80;99.90;;;15.02;69.04;102370.16;5083299;28;20044;-67
2023/05/29 02:26:13;;;;;;;20.15;6.85;;;14.70;99.90;;;14.90;69.05;102346.16;5083094;28;20055;-67
2023/05/29 02:28:41;;;;;;;28.67;5.88;;;14.70;99.90;;;14.94;69.06;102362.13;5084125;28;20048;-67
2023/05/29 02:31:10;;;;;;;23.02;5.97;;;14.60;99.90;;;14.93;68.89;102363.03;5083203;28;20089;-66
2023/05/29 02:33:38;;;;;;;20.80;7.15;;;14.60;99.90;;;14.95;69.14;102368.38;5084819;28;20052;-66
2023/05/29 02:36:09;;;;;;;24.50;6.53;;;14.60;99.90;;;14.91;69.12;102367.47;5081191;28;20041;-67
2023/05/29 02:38:38;;;;;;;19.60;5.90;;;14.60;99.90;;;14.85;69.19;102355.91;5078022;28;20044;-66
2023/05/29 02:41:07;;;;;;;22.10;6.18;;;14.60;99.90;;;14.90;69.21;102360.38;5100767;28;20040;-66
2023/05/29 02:43:36;;;;;;;17.98;5.72;;;14.60;99.90;;;14.92;69.27;102363.94;5081501;28;20067;-66
2023/05/29 02:46:06;;;;;;;22.10;5.78;;;14.60;99.90;;;14.95;68.98;102363.94;5084108;28;20471;-66
2023/05/29 02:48:35;;;;;;;19.70;5.95;;;14.60;99.90;;;14.77;69.10;102342.56;5083652;28;20049;-66
2023/05/29 02:51:03;;;;;;;21.75;5.82;;;14.60;99.90;;;14.91;69.04;102359.47;5098821;28;20051;-66
2023/05/29 02:53:33;;;;;;;19.08;6.18;;;14.60;99.90;;;14.90;69.08;102371.03;5084142;28;20052;-66
2023/05/29 02:56:01;;;;;;;22.77;6.93;;;14.60;99.90;;;14.87;69.09;102364.78;5082201;28;20102;-66
2023/05/29 02:58:31;;;;;;;24.42;6.38;;;14.60;99.90;;;14.77;69.03;102363.03;5085177;28;20044;-67
2023/05/29 03:01:00;;;;;;;23.13;6.70;;;14.50;99.90;;;14.81;69.59;102375.44;5077899;28;20053;-67
2023/05/29 03:03:28;;;;;;;21.85;6.38;;;14.50;99.90;;;14.87;69.28;102362.13;5083125;28;20051;-66
2023/05/29 03:05:57;;;;;;;22.60;6.55;;;14.50;99.90;;;14.82;69.21;102362.13;5081127;28;20044;-66
2023/05/29 03:08:27;;;;;;;22.73;6.57;;;14.50;99.90;;;14.83;68.96;102366.56;5083636;28;20063;-66
2023/05/29 03:10:57;;;;;;;21.90;5.90;;;14.50;99.90;;;14.80;68.94;102369.22;5083347;28;20127;-67
2023/05/29 03:13:26;;;;;;;22.05;6.18;;;14.50;99.90;;;14.80;68.79;102369.22;5082286;28;20048;-67
2023/05/29 03:16:02;;;;;;;25.05;6.32;;;14.50;99.90;;;14.79;68.47;102383.44;5093063;28;20045;-67
2023/05/29 03:18:30;;;;;;;16.88;6.03;;;14.50;99.90;;;14.74;69.05;102378.97;5084283;28;20059;-67
2023/05/29 03:21:01;;;;;;;24.23;6.22;;;14.40;99.90;;;14.77;68.91;102371.88;5098019;28;20075;-67
2023/05/29 03:23:33;;;;;;;23.30;6.55;;;14.50;99.90;;;14.53;68.76;102342.53;5083077;28;20100;-68
2023/05/29 03:26:03;;;;;;;22.92;6.10;;;14.40;99.90;;;14.73;69.11;102372.75;5099190;28;20052;-67
2023/05/29 03:28:34;;;;;;;17.98;5.70;;;14.40;99.90;;;14.69;68.97;102365.63;5080865;28;20037;-67
2023/05/29 03:31:05;;;;;;;21.23;6.00;;;14.40;99.90;;;14.74;68.92;102373.66;5092719;28;20054;-67
2023/05/29 03:33:34;;;;;;;21.30;5.90;;;14.40;99.90;;;14.58;68.64;102372.72;5100095;28;20048;-67
2023/05/29 03:36:13;;;;;;;20.30;6.25;;;14.30;99.90;;;14.48;68.98;102362.91;5082027;28;20049;-67
2023/05/29 03:38:43;;;;;;;20.65;6.18;;;14.20;99.90;;;14.55;69.15;102367.38;5080423;28;20045;-66
2023/05/29 03:41:12;;;;;;;25.33;6.40;;;14.20;99.90;;;14.60;69.24;102370.03;5082844;28;20048;-66
2023/05/29 03:43:41;;;;;;;19.93;6.50;;;14.30;99.90;;;14.52;69.77;102369.16;5096304;28;20076;-67
2023/05/29 03:46:10;;;;;;;21.40;6.38;;;14.20;99.90;;;13.99;69.05;102260.69;5089737;28;20524;-66
2023/05/29 03:48:38;;;;;;;16.52;5.55;;;14.30;99.90;;;14.61;68.90;102371.84;5083846;28;20040;-66
2023/05/29 03:51:07;;;;;;;22.42;6.13;;;14.30;99.90;;;14.54;68.68;102375.38;5097380;28;20048;-66
2023/05/29 03:53:37;;;;;;;23.33;6.63;;;14.20;99.90;;;14.57;68.95;102386.03;5082866;28;20126;-67
2023/05/29 03:56:06;;;;;;;21.30;5.95;;;14.20;99.90;;;14.58;68.96;102387.78;5081269;28;20060;-66
2023/05/29 03:58:37;;;;;;;25.30;7.28;;;14.30;99.90;;;14.51;69.20;102370.94;5080770;28;20044;-66
2023/05/29 04:01:05;;;;;;;19.92;6.07;;;14.30;99.90;;;14.65;68.98;102389.63;5099700;28;20055;-66
2023/05/29 04:03:34;;;;;;;15.73;5.60;;;14.30;99.90;;;14.69;68.52;102394.06;5076044;28;20060;-67
2023/05/29 04:06:03;;;;;;;21.73;5.68;;;14.40;99.90;;;14.68;68.69;102386.94;5092459;28;20140;-67
2023/05/29 04:08:32;;;;;;;18.65;5.60;;;14.40;99.90;;;14.71;68.47;102394.97;5084020;28;20044;-67
2023/05/29 04:11:01;;;;;;;21.60;6.13;;;14.40;99.90;;;14.68;68.32;102400.25;5081265;28;20498;-67
2023/05/29 04:13:29;;;;;;;18.33;5.82;;;14.30;99.90;;;14.61;68.33;102393.16;5081716;28;20044;-67
2023/05/29 04:15:59;;;;;;;18.70;6.47;;;14.30;99.90;;;14.61;68.46;102398.47;5082115;28;20057;-67
2023/05/29 04:18:28;;;;;;;19.42;5.90;;;14.20;99.90;;;14.72;68.00;102402.94;5097536;28;20044;-67
2023/05/29 04:20:56;;;;;;;17.70;5.95;;;14.40;99.90;;;14.73;68.16;102403.84;5098753;28;20047;-66
2023/05/29 04:23:25;;;;;;;23.58;6.05;;;14.40;99.90;;;14.74;68.30;102401.19;5096584;28;20053;-66
2023/05/29 04:25:53;;;;;;;22.70;6.45;;;14.50;99.90;;;14.79;68.17;102395.88;5082759;28;20052;-67
2023/05/29 04:28:26;;;;;;;23.75;5.85;;;14.40;99.90;;;14.81;67.81;102402.06;5093204;28;20052;-67
2023/05/29 04:30:56;;;;;;;21.10;6.03;;;14.50;99.90;;;14.11;68.00;102289.13;5081859;28;20151;-67
2023/05/29 04:33:28;;;;;;;19.83;5.93;;;14.40;99.90;;;14.76;68.20;102404.75;5081767;28;20425;-67
2023/05/29 04:35:58;;;;;;;19.33;6.55;;;14.50;99.90;;;14.75;67.76;102405.59;5080209;28;20048;-68
2023/05/29 04:38:27;;;;;;;19.23;6.40;;;14.50;99.90;;;14.79;68.15;102415.41;5065747;28;20416;-67
2023/05/29 04:40:58;;;;;;;19.15;5.95;;;14.40;99.90;;;14.97;67.42;102410.13;5082627;28;20067;-66
2023/05/29 04:43:28;;;;;;;24.42;6.32;;;14.60;99.90;;;14.92;67.45;102409.25;5098961;28;20044;-67
2023/05/29 04:46:02;;;;;;;20.95;6.40;;;14.60;99.90;;;14.90;67.77;102407.44;5083920;28;20056;-66
2023/05/29 04:48:33;;;;;;;18.98;5.50;;;14.60;99.90;;;14.93;67.75;102419.00;5085673;28;20093;-67
2023/05/29 04:51:03;;;;;;;19.70;6.53;;;14.60;99.90;;;14.91;67.75;102420.75;5069422;28;20085;-66
2023/05/29 04:53:32;;;;;;;20.35;6.47;;;14.70;99.90;;;14.89;67.83;102425.19;5084672;28;20044;-67
2023/05/29 04:56:00;;;;;;;21.50;6.82;;;14.60;99.90;;;14.98;67.55;102430.53;5103048;28;20040;-67
2023/05/29 04:58:29;;;;;;;18.20;6.20;;;14.60;99.90;;;14.96;67.42;102437.66;5078442;28;20135;-66
2023/05/29 05:00:59;;;;;;;25.40;6.68;;;14.70;99.90;;;14.99;67.80;102432.34;5103054;28;20044;-66
2023/05/29 05:03:34;;;;;;;15.73;5.65;;;14.70;99.90;;;15.05;67.70;102440.34;5067664;28;20053;-67
2023/05/29 05:06:05;;;;;;;20.92;6.10;;;14.70;99.90;;;15.06;67.76;102436.78;5083978;28;20058;-66
2023/05/29 05:08:34;;;;;;;19.17;6.00;;;14.70;99.90;;;15.04;67.63;102433.22;5102344;28;20451;-67
2023/05/29 05:11:03;;;;;;;18.27;5.55;;;14.70;99.90;;;15.10;67.51;102430.59;5099451;28;20106;-66
2023/05/29 05:13:33;;;;;;;22.98;6.20;;;14.80;99.90;;;15.13;67.72;102435.94;5095589;28;20102;-67
2023/05/29 05:16:02;;;;;;;25.73;6.53;;;14.80;99.90;;;15.22;67.78;102443.94;5086798;28;20040;-66
2023/05/29 05:18:32;;;;;;;21.70;6.97;;;14.90;99.90;;;15.21;67.43;102436.81;5083042;28;20071;-67
2023/05/29 05:21:05;;;;;;;15.63;6.18;;;14.90;99.90;;;15.26;67.29;102440.41;5084020;28;20135;-67
2023/05/29 05:23:35;;;;;;;20.02;5.82;;;14.90;99.90;;;15.30;67.44;102441.28;5101683;28;20090;-66
2023/05/29 05:26:23;;;;;;;18.95;5.97;;;15.00;99.90;;;15.28;67.56;102448.38;5081802;28;20094;-67
2023/05/29 05:28:52;;;;;;;21.35;6.55;;;14.90;99.90;;;15.34;67.51;102446.63;5100482;28;20048;-67
2023/05/29 05:31:21;;;;;;;16.02;5.75;;;15.00;99.90;;;15.42;67.56;102443.09;5085833;28;20044;-67
2023/05/29 05:33:50;;;;;;;16.90;6.60;;;15.00;99.90;;;15.42;67.20;102445.78;5083976;28;20040;-67
2023/05/29 05:36:19;;;;;;;20.60;6.35;;;15.10;99.90;;;15.45;67.12;102440.47;5061807;28;20401;-67
2023/05/29 05:38:53;;;;;;;20.17;6.10;;;15.10;99.90;;;15.41;67.02;102444.84;5099354;28;20044;-67
2023/05/29 05:41:23;;;;;;;14.68;5.22;;;15.10;99.90;;;15.31;67.11;102425.28;5084219;28;20044;-67
2023/05/29 05:43:52;;;;;;;21.02;6.28;;;15.10;99.90;;;15.43;66.83;102444.91;5100470;28;20091;-67
2023/05/29 05:46:42;;;;;;;18.58;6.13;;;15.10;99.90;;;14.80;67.16;102333.69;5096769;28;20052;-66
2023/05/29 05:49:12;;;;;;;21.10;6.55;;;15.10;99.90;;;15.48;67.31;102440.44;5083937;28;20052;-67
2023/05/29 05:51:42;;;;;;;24.13;6.40;;;15.20;99.90;;;15.50;67.08;102452.00;5067186;28;20074;-67
2023/05/29 05:54:12;;;;;;;25.35;6.55;;;15.20;99.90;;;15.60;67.15;102457.34;5082433;28;20052;-67
2023/05/29 05:56:40;;;;;;;20.25;5.63;;;15.20;99.90;;;15.61;67.14;102456.47;5086070;28;20064;-66
2023/05/29 05:59:10;;;;;;;23.02;6.28;;;15.30;99.90;;;15.50;67.02;102450.25;5077222;28;20041;-67
2023/05/29 06:01:41;;;;;;;17.70;5.93;;;15.30;99.90;;;15.73;66.70;102453.81;5077939;28;20060;-66
2023/05/29 06:04:09;;;;;;;20.77;6.20;;;15.30;99.90;;;15.78;66.25;102462.69;5084400;28;20512;-67
2023/05/29 06:06:39;;;;;;;19.08;5.78;;;15.40;99.90;;;15.81;65.70;102461.81;5066352;28;20413;-67
2023/05/29 06:09:10;;;;;;;19.70;6.60;;;15.50;99.90;;;15.74;65.36;102460.91;5083277;28;20570;-67
2023/05/29 06:11:39;;;;;;;18.17;5.82;;;15.40;99.90;;;15.77;65.64;102460.03;5100547;28;20048;-67
2023/05/29 06:14:07;;;;;;;22.25;6.88;;;15.40;99.90;;;15.72;65.80;102464.44;5083312;28;20067;-67
2023/05/29 06:16:36;;;;;;;23.80;6.95;;;15.40;99.90;;;15.70;65.47;102477.78;5101533;28;20044;-66
2023/05/29 06:19:05;;;;;;;21.05;6.30;;;15.40;99.90;;;15.67;65.28;102472.47;5077591;28;20064;-67
2023/05/29 06:21:45;;;;;;;22.63;6.28;;;15.40;99.90;;;15.67;65.31;102458.25;5080392;28;20049;-67
2023/05/29 06:24:14;;;;;;;22.63;7.13;;;15.40;99.90;;;15.77;65.35;102466.25;5099262;28;20082;-66
2023/05/29 06:26:42;;;;;;;23.33;6.25;;;15.40;99.90;;;15.75;65.03;102461.81;5100290;28;20044;-67
2023/05/29 06:29:13;;;;;;;21.27;6.68;;;15.50;99.90;;;15.84;65.13;102472.47;5098411;28;20142;-67
2023/05/29 06:31:41;;;;;;;31.90;7.30;;;15.50;99.90;;;15.90;64.48;102472.47;5101422;28;20501;-67
2023/05/29 06:34:10;;;;;;;26.98;6.15;;;15.60;99.90;;;15.94;64.20;102477.81;5060659;28;20051;-67
2023/05/29 06:36:40;;;;;;;20.45;6.20;;;15.60;99.90;;;15.97;63.68;102466.22;5083867;28;20044;-66
2023/05/29 06:39:10;;;;;;;19.92;6.47;;;15.70;99.90;;;16.08;64.12;102468.00;5098560;28;20052;-66
2023/05/29 06:41:38;;;;;;;21.23;6.45;;;15.70;99.90;;;16.06;63.17;102475.13;5084403;28;20050;-67
2023/05/29 06:44:07;;;;;;;20.48;6.68;;;15.80;99.90;;;16.14;63.13;102470.66;5099513;28;20139;-67
2023/05/29 06:46:36;;;;;;;21.45;6.20;;;15.80;99.90;;;16.21;63.20;102468.88;5081508;28;20044;-67
2023/05/29 06:49:04;;;;;;;17.00;5.85;;;15.80;99.90;;;16.22;63.04;102463.53;5098026;28;20067;-67
2023/05/29 06:51:35;;;;;;;16.52;6.50;;;15.90;99.90;;;16.23;62.65;102473.31;5100663;28;20135;-66
2023/05/29 06:54:37;;;;;;;17.95;5.82;;;15.90;99.90;;;16.20;62.59;102485.81;5063902;28;20098;-67
2023/05/29 06:57:06;;;;;;;24.45;7.05;;;15.90;99.90;;;16.30;62.50;102474.19;5064854;28;20157;-66
2023/05/29 06:59:40;;;;;;;17.70;5.97;;;16.00;99.90;;;16.35;62.04;102483.09;5081671;28;20105;-66
2023/05/29 07:02:09;;;;;;;18.48;6.55;;;16.00;99.90;;;16.42;61.48;102481.28;5081661;28;20422;-66
2023/05/29 07:04:39;;;;;;;22.88;6.25;;;16.10;99.90;;;16.39;61.32;102483.97;5080835;28;20509;-66
2023/05/29 07:07:07;;;;;;;16.23;6.35;;;16.10;99.90;;;16.49;61.31;102483.09;5083645;28;20058;-66
2023/05/29 07:09:39;;;;;;;22.10;6.80;;;16.20;99.90;;;16.55;60.93;102481.28;5076220;28;20493;-66
2023/05/29 07:12:07;;;;;;;22.40;6.60;;;16.20;99.90;;;16.54;60.63;102476.84;5084252;28;20283;-66
2023/05/29 07:14:36;;;;;;;21.02;6.47;;;16.30;99.90;;;16.61;60.26;102470.56;5064926;28;20090;-67
2023/05/29 07:17:05;;;;;;;20.75;5.70;;;16.30;99.90;;;16.54;59.96;102474.16;5082256;28;20443;-67
2023/05/29 07:19:34;;;;;;;24.48;6.97;;;16.30;99.90;;;16.53;60.16;102488.41;5098595;28;20045;-66
2023/05/29 07:22:05;;;;;;;19.08;6.18;;;16.30;99.90;;;16.58;59.91;102483.06;5097698;28;20058;-66
2023/05/29 07:24:34;;;;;;;18.88;5.97;;;16.30;99.90;;;16.66;60.15;102478.56;5084291;28;20435;-67
2023/05/29 07:27:06;;;;;;;;;;;16.40;99.90;;;16.75;60.00;102490.13;5076729;28;20102;-67
2023/05/29 07:29:35;;;;;;;20.35;6.32;;;16.50;99.90;;;16.93;58.87;102478.47;5052980;28;20465;-67
2023/05/29 07:32:04;;;;;;;18.70;6.15;;;16.60;99.90;;;17.02;58.97;102491.78;5082563;28;20067;-67
2023/05/29 07:34:33;;;;;;;17.20;5.80;;;16.70;99.90;;;17.18;58.70;102493.47;5064847;28;20076;-67
2023/05/29 07:37:03;;;;;;;12.05;5.43;;;16.80;99.90;;;16.97;56.84;102486.47;5081565;28;20528;-66
2023/05/29 07:39:35;;;;;;;17.13;5.72;;;16.80;99.90;;;17.11;56.42;102506.00;5116204;27;20044;-66
2023/05/29 07:42:14;;;;;;;16.02;5.30;;;16.80;99.90;;;17.04;55.88;102472.16;5076800;28;20472;-67
2023/05/29 07:44:44;;;;;;;15.68;5.68;;;16.90;99.90;;;17.07;56.42;102476.63;5099042;28;20055;-67
2023/05/29 07:47:12;;;;;;;15.75;5.68;;;16.90;99.90;;;17.24;56.04;102501.47;5064898;28;20048;-67
2023/05/29 07:49:45;;;;;;;15.52;5.45;;;16.90;99.90;;;17.14;55.61;102499.75;5097601;28;20078;-67
2023/05/29 07:52:14;;;;;;;16.25;5.82;;;16.90;99.90;;;17.40;56.82;102503.13;5082684;28;20146;-67
2023/05/29 07:54:42;;;;;;;17.50;5.43;;;17.00;99.90;;;17.54;57.50;102501.31;5096569;28;20053;-67
2023/05/29 07:57:14;;;;;;;18.77;5.95;;;17.20;99.90;;;17.47;56.20;102482.59;5051633;28;20418;-67
2023/05/29 07:59:45;;;;;;;19.63;5.90;;;17.30;99.90;;;17.78;56.05;102510.94;5083400;28;20475;-67
2023/05/29 08:02:13;;;;;;;19.27;5.88;;;17.50;99.90;;;17.78;55.36;102510.94;5097194;28;20060;-66
2023/05/29 08:04:56;;;;;;;17.40;5.88;;;17.50;99.90;;;17.79;55.86;102515.38;5096086;28;20128;-67
2023/05/29 08:07:28;;;;;;;16.38;5.88;;;17.50;99.90;;;17.92;55.41;102512.59;5092563;28;20052;-67
2023/05/29 08:09:57;;;;;;;14.45;5.80;;;17.60;99.90;;;18.12;55.79;102516.94;5083121;28;20474;-67
2023/05/29 08:12:27;;;;;;;18.05;6.05;;;17.70;99.90;;;18.23;55.69;102523.06;5081921;28;20051;-67
2023/05/29 08:14:58;;;;;;;22.42;5.88;;;17.90;99.90;;;18.09;54.46;102504.44;5100925;28;20386;-66
2023/05/29 08:17:26;;;;;;;19.15;6.13;;;17.90;99.90;;;17.96;54.25;102506.31;5087501;28;20046;-67
2023/05/29 08:19:55;;;;;;;18.60;6.43;;;17.70;99.90;;;18.13;54.80;102518.69;5084418;28;20055;-67
2023/05/29 08:22:30;;;;;;;12.90;5.28;;;17.80;99.90;;;18.25;53.79;102516.81;5084606;28;20409;-67
2023/05/29 08:24:59;;;;;;;18.77;5.80;;;17.90;99.90;;;18.18;54.49;102524.88;5097851;28;20468;-67
2023/05/29 08:27:29;;;;;;;15.32;5.93;;;17.90;99.90;;;18.28;54.14;102530.16;5086859;28;20378;-67
2023/05/29 08:29:57;;;;;;;16.85;5.78;;;18.00;99.90;;;18.30;53.83;102531.03;5086169;28;20446;-67
2023/05/29 08:32:25;;;;;;;15.90;5.47;;;18.00;99.90;;;18.27;53.38;102528.38;5085984;28;20056;-67
2023/05/29 08:34:54;;;;;;;17.77;5.28;;;17.90;99.90;;;18.37;53.28;102527.38;5084133;28;20047;-67
2023/05/29 08:37:23;;;;;;;15.77;5.60;;;18.00;99.90;;;18.34;53.35;102527.41;5087126;28;20036;-67
2023/05/29 08:39:52;;;;;;;19.23;6.55;;;18.00;99.90;;;18.17;52.89;102483.84;5084276;28;20045;-67
2023/05/29 08:42:32;;;;;;;17.27;6.40;;;18.10;99.90;;;18.60;52.81;102529.88;5087783;28;20040;-67
2023/05/29 08:45:04;;;;;;;14.10;5.43;;;18.30;99.90;;;18.72;51.10;102532.38;5083864;28;20102;-67
2023/05/29 08:47:34;;;;;;;14.82;5.55;;;18.40;99.90;;;18.62;51.05;102512.84;5085093;28;20380;-69
2023/05/29 08:50:03;;;;;;;14.27;5.63;;;18.50;99.90;;;18.90;50.62;102537.56;5087234;28;20473;-68
2023/05/29 08:52:36;;;;;;;16.55;5.68;;;18.60;99.90;;;19.01;50.50;102532.06;5099639;28;20448;-68
2023/05/29 08:55:06;;;;;;;14.15;5.45;;;18.70;99.90;;;18.92;49.23;102542.00;5097110;28;20055;-68
2023/05/29 08:57:38;;;;;;;14.93;5.50;;;18.70;99.90;;;18.93;49.31;102543.75;5085893;28;20118;-69
2023/05/29 09:00:12;;;;;;;15.35;5.63;;;18.60;99.90;;;19.13;49.22;102546.19;5085835;28;20383;-68
2023/05/29 09:02:40;;;;;;;11.40;5.03;;;18.80;99.90;;;19.30;49.63;102536.13;5083823;28;20106;-68
2023/05/29 09:05:10;;;;;;;13.43;4.88;;;19.00;99.90;;;19.36;48.74;102540.56;5087227;28;20103;-67
2023/05/29 09:07:39;;;;;;;12.40;5.18;;;19.10;99.90;;;19.40;48.87;102550.34;5079942;28;20056;-67
2023/05/29 09:10:09;;;;;;;17.42;5.90;;;19.10;99.90;;;19.43;48.55;102547.63;5086821;28;20054;-67
2023/05/29 09:12:39;;;;;;;;;;;19.10;99.90;;;19.55;48.79;102537.59;5100875;28;20048;-67
2023/05/29 09:15:19;;;;;;;14.17;5.47;;;19.40;99.90;;;19.54;48.29;102540.31;5085273;28;19973;-67
2023/05/29 09:17:52;;;;;;;15.48;5.07;;;19.30;99.90;;;19.66;47.55;102538.34;5087608;28;20278;-67
2023/05/29 09:20:23;;;;;;;13.82;5.22;;;19.40;99.90;;;18.93;46.59;102494.59;5081727;28;20048;-68
2023/05/29 09:22:56;;;;;;;12.93;5.00;;;19.20;99.90;;;19.44;48.38;102552.97;5085543;28;20040;-67
2023/05/29 09:25:27;;;;;;;13.05;5.32;;;19.10;99.90;;;19.43;46.94;102548.53;5085185;28;20057;-67
2023/05/29 09:28:03;;;;;;;15.30;5.57;;;19.20;99.90;;;19.37;47.78;102512.81;5083683;28;20052;-69
2023/05/29 09:30:38;;;;;;;12.48;5.13;;;19.20;99.90;;;19.56;48.04;102551.91;5081392;28;20051;-68
2023/05/29 09:33:08;;;;;;;17.27;5.60;;;19.30;99.90;;;19.47;47.91;102522.53;5085253;28;20048;-68
2023/05/29 09:35:39;;;;;;;14.40;5.75;;;19.30;99.90;;;18.84;48.87;102526.88;5085951;28;20066;-68
2023/05/29 09:38:09;;;;;;;16.35;5.70;;;18.70;99.90;;;18.84;48.54;102530.47;5099010;28;20051;-68
2023/05/29 09:40:40;;;;;;;13.25;5.70;;;18.60;99.90;;;19.11;49.25;102536.38;5079493;28;20044;-67
2023/05/29 09:43:14;;;;;;;16.15;4.95;;;18.70;99.90;;;19.25;49.15;102532.63;5086464;28;20071;-69
2023/05/29 09:45:44;;;;;;;21.25;5.60;;;18.90;99.90;;;19.30;49.79;102537.94;5084830;28;20056;-69
2023/05/29 09:48:15;;;;;;;15.55;5.75;;;19.00;99.90;;;19.30;47.97;102533.44;5084279;28;20105;-66
2023/05/29 09:50:45;;;;;;;20.25;6.10;;;19.10;99.90;;;19.51;49.15;102530.50;5085838;28;20052;-67
2023/05/29 09:53:23;;;;;;;14.98;5.15;;;19.20;99.90;;;19.75;48.79;102531.91;5083060;28;20071;-66
2023/05/29 09:55:54;;;;;;;14.52;5.28;;;19.40;99.90;;;19.89;48.57;102532.59;5081841;28;20043;-67
2023/05/29 09:58:25;;;;;;;12.10;5.65;;;19.60;99.90;;;20.09;48.10;102527.75;5084338;28;20048;-66
2023/05/29 10:00:54;;;;;;;12.48;5.47;;;19.70;99.90;;;20.05;47.09;102519.81;5085724;28;20048;-66
2023/05/29 10:03:23;;;;;;;15.63;5.18;;;19.70;99.90;;;19.95;47.14;102524.44;5082952;28;20058;-66
2023/05/29 10:05:56;;;;;;;15.80;5.35;;;19.70;99.90;;;20.09;46.85;102534.97;5078431;28;20105;-67
2023/05/29 10:08:27;;;;;;;16.80;4.97;;;19.80;99.90;;;20.13;45.83;102510.66;5080410;28;20068;-67
2023/05/29 10:11:01;;;;;;;;;;;19.80;99.90;;;20.01;45.41;102513.59;5085222;28;20473;-66
2023/05/29 10:13:36;;;;;;;13.60;5.22;;;19.80;99.90;;;19.93;45.47;102514.63;5084933;28;19920;-67
2023/05/29 10:16:08;;;;;;;13.73;5.63;;;19.70;99.90;;;20.16;45.98;102520.50;5078471;28;20087;-66
2023/05/29 10:18:39;;;;;;;13.43;6.35;;;19.80;99.90;;;20.39;46.76;102521.88;5079819;28;20048;-67
2023/05/29 10:21:10;;;;;;;10.88;5.18;;;20.10;99.90;;;20.46;45.81;102520.84;5084461;28;20566;-67
2023/05/29 10:23:42;;;;;;;11.23;4.72;;;20.20;99.90;;;20.44;44.00;102528.06;5084438;28;20128;-67